Decoded Metar for PAGH ( in ) (IATA:) | Meteo·Mobile Aviation Weather
aviador You're here:

PAGH Decoded Metar

in
Report Time2018-08-22 04:56:00
UTC Time2018-08-22 05:37:30
Flight Rules vfr VFR
Wind280° at 05 kt
W.Decomp.*RWY 27: 4.9 kt HW 0.9 kt RCW
W.Rank280° ranks 8
Current wind is below 280° avg. (6.6)
Visibility9999 m
Phenomena:N/A
Clouds:N/A
Expected CloudBase > 1,600 ft AGL from Temp-Dew spread
CeilingNone
Temp16°C
Dew Point12°C (77% RH)
AAT14.8°C
QNH1007 hPa
Raw Report
PAGH 220456Z AUTO 28005KT 10SM CLR 16/12 A2973 RMK AO2 SLP071
T01610122=

Extra information for PAGH:More info

Social comments